EZY36CQ EBBR-EGKK
Flight info
| Callsign | EZY36CQ |
|---|---|
| Flight time | 0h 44m |
| Altitude | 28000 |
| Route | DENUT3V DENUT L610 TEBRA TEBRA2G |
| Aircraft | A20N/M-V/N |
Departure
| Time | 2026-05-06 18:14 |
|---|---|
| Airport | Brussels Airport (EBBR) |
Arrival
| Time | 2026-05-06 18:59 |
|---|---|
| Airport | London Gatwick Airport (EGKK) |
| Time | Latitude | Longitude | Altitude | Speed | Heading |
|---|---|---|---|---|---|
| 2026-05-06 17:55 | 50.89429 | 4.48842 | 161 ft | 0 kts | 293° |
| 2026-05-06 18:04 | 50.89426 | 4.48851 | 161 ft | 4 kts | 293° |
| 2026-05-06 18:04 | 50.89419 | 4.48879 | 162 ft | 2 kts | 293° |
| 2026-05-06 18:04 | 50.89412 | 4.48904 | 162 ft | 2 kts | 293° |
| 2026-05-06 18:05 | 50.89405 | 4.48928 | 163 ft | 2 kts | 292° |
| 2026-05-06 18:05 | 50.89400 | 4.48954 | 163 ft | 2 kts | 270° |
| 2026-05-06 18:05 | 50.89403 | 4.48981 | 163 ft | 2 kts | 247° |
| 2026-05-06 18:05 | 50.89411 | 4.49004 | 163 ft | 2 kts | 202° |
| 2026-05-06 18:06 | 50.89414 | 4.49007 | 163 ft | 0 kts | 186° |
| 2026-05-06 18:10 | 50.89405 | 4.49004 | 163 ft | 3 kts | 190° |
| 2026-05-06 18:10 | 50.89374 | 4.48995 | 164 ft | 6 kts | 191° |
| 2026-05-06 18:10 | 50.89331 | 4.48969 | 165 ft | 8 kts | 202° |
| 2026-05-06 18:11 | 50.89283 | 4.48847 | 167 ft | 20 kts | 250° |
| 2026-05-06 18:11 | 50.89220 | 4.48574 | 171 ft | 32 kts | 251° |
| 2026-05-06 18:11 | 50.89155 | 4.48293 | 174 ft | 24 kts | 250° |
| 2026-05-06 18:11 | 50.89097 | 4.48035 | 174 ft | 22 kts | 246° |
| 2026-05-06 18:12 | 50.89068 | 4.47935 | 175 ft | 0 kts | 232° |
| 2026-05-06 18:12 | 50.89067 | 4.47935 | 175 ft | 1 kts | 232° |
| 2026-05-06 18:12 | 50.89039 | 4.47901 | 175 ft | 9 kts | 202° |
| 2026-05-06 18:13 | 50.88960 | 4.47934 | 173 ft | 15 kts | 150° |
| 2026-05-06 18:13 | 50.88932 | 4.48083 | 172 ft | 16 kts | 101° |
| 2026-05-06 18:13 | 50.88955 | 4.48252 | 172 ft | 17 kts | 67° |
| 2026-05-06 18:13 | 50.89003 | 4.48463 | 173 ft | 32 kts | 70° |
| 2026-05-06 18:14 | 50.89157 | 4.49144 | 169 ft | 98 kts | 68° |
| 2026-05-06 18:14 | 50.89454 | 4.50417 | 170 ft | 146 kts | 70° |
| 2026-05-06 18:14 | 50.89821 | 4.52048 | 475 ft | 161 kts | 66° |
| 2026-05-06 18:14 | 50.90219 | 4.53722 | 1185 ft | 161 kts | 68° |
| 2026-05-06 18:15 | 50.90654 | 4.55326 | 1863 ft | 163 kts | 60° |
| 2026-05-06 18:15 | 50.91243 | 4.56921 | 2363 ft | 175 kts | 57° |
| 2026-05-06 18:15 | 50.92002 | 4.58574 | 2724 ft | 198 kts | 39° |
| 2026-05-06 18:15 | 50.93260 | 4.59515 | 3553 ft | 199 kts | 6° |
| 2026-05-06 18:16 | 50.94583 | 4.59204 | 4587 ft | 199 kts | 333° |
| 2026-05-06 18:16 | 50.95641 | 4.57676 | 5350 ft | 220 kts | 304° |
| 2026-05-06 18:16 | 50.96378 | 4.55475 | 6239 ft | 230 kts | 294° |
| 2026-05-06 18:16 | 50.96890 | 4.53054 | 7268 ft | 233 kts | 289° |
| 2026-05-06 18:17 | 50.97381 | 4.50570 | 8250 ft | 239 kts | 289° |
| 2026-05-06 18:17 | 50.97883 | 4.48030 | 9285 ft | 243 kts | 289° |
| 2026-05-06 18:17 | 50.98398 | 4.45441 | 10239 ft | 248 kts | 289° |
| 2026-05-06 18:17 | 50.98920 | 4.42831 | 11217 ft | 249 kts | 289° |
| 2026-05-06 18:18 | 50.99449 | 4.40197 | 12184 ft | 252 kts | 288° |
| 2026-05-06 18:18 | 50.99984 | 4.37531 | 13113 ft | 255 kts | 288° |
| 2026-05-06 18:18 | 51.00524 | 4.34830 | 14021 ft | 258 kts | 288° |
| 2026-05-06 18:18 | 51.01071 | 4.32085 | 14819 ft | 263 kts | 288° |
| 2026-05-06 18:19 | 51.01624 | 4.29300 | 15645 ft | 267 kts | 288° |
| 2026-05-06 18:19 | 51.02184 | 4.26473 | 16436 ft | 270 kts | 288° |
| 2026-05-06 18:19 | 51.02752 | 4.23602 | 17235 ft | 274 kts | 288° |
| 2026-05-06 18:19 | 51.03327 | 4.20692 | 18025 ft | 276 kts | 288° |
| 2026-05-06 18:20 | 51.03907 | 4.17749 | 18645 ft | 283 kts | 287° |
| 2026-05-06 18:20 | 51.04514 | 4.14668 | 18995 ft | 300 kts | 287° |
| 2026-05-06 18:20 | 51.05144 | 4.11463 | 19458 ft | 312 kts | 287° |
| 2026-05-06 18:20 | 51.05808 | 4.08083 | 19850 ft | 325 kts | 287° |
| 2026-05-06 18:21 | 51.06484 | 4.04630 | 20560 ft | 328 kts | 287° |
| 2026-05-06 18:21 | 51.07164 | 4.01152 | 21279 ft | 331 kts | 287° |
| 2026-05-06 18:21 | 51.07851 | 3.97634 | 21965 ft | 335 kts | 287° |
| 2026-05-06 18:21 | 51.08544 | 3.94080 | 22649 ft | 338 kts | 287° |
| 2026-05-06 18:22 | 51.09243 | 3.90485 | 23338 ft | 342 kts | 286° |
| 2026-05-06 18:22 | 51.09949 | 3.86846 | 23766 ft | 346 kts | 286° |
| 2026-05-06 18:22 | 51.10658 | 3.83184 | 23891 ft | 347 kts | 286° |
| 2026-05-06 18:22 | 51.11366 | 3.79522 | 23904 ft | 346 kts | 286° |
| 2026-05-06 18:23 | 51.12071 | 3.75862 | 23902 ft | 345 kts | 286° |
| 2026-05-06 18:23 | 51.12774 | 3.72214 | 23906 ft | 346 kts | 286° |
| 2026-05-06 18:23 | 51.13468 | 3.68600 | 23910 ft | 345 kts | 286° |
| 2026-05-06 18:23 | 51.14178 | 3.64897 | 23908 ft | 345 kts | 286° |
| 2026-05-06 18:24 | 51.14877 | 3.61241 | 23909 ft | 345 kts | 286° |
| 2026-05-06 18:24 | 51.15576 | 3.57583 | 23914 ft | 345 kts | 286° |
| 2026-05-06 18:24 | 51.16273 | 3.53927 | 23916 ft | 347 kts | 286° |
| 2026-05-06 18:24 | 51.16991 | 3.50144 | 23920 ft | 368 kts | 286° |
| 2026-05-06 18:25 | 51.17742 | 3.46183 | 23919 ft | 388 kts | 286° |
| 2026-05-06 18:25 | 51.18552 | 3.41904 | 23927 ft | 408 kts | 286° |
| 2026-05-06 18:25 | 51.19377 | 3.37541 | 23930 ft | 426 kts | 285° |
| 2026-05-06 18:25 | 51.20246 | 3.32932 | 23935 ft | 442 kts | 285° |
| 2026-05-06 18:26 | 51.21158 | 3.28090 | 23941 ft | 457 kts | 285° |
| 2026-05-06 18:26 | 51.22083 | 3.23162 | 23945 ft | 470 kts | 285° |
| 2026-05-06 18:26 | 51.23025 | 3.18129 | 23953 ft | 475 kts | 285° |
| 2026-05-06 18:26 | 51.23957 | 3.13146 | 23954 ft | 475 kts | 285° |
| 2026-05-06 18:27 | 51.24897 | 3.08098 | 23960 ft | 475 kts | 285° |
| 2026-05-06 18:27 | 51.25850 | 3.02972 | 23965 ft | 475 kts | 285° |
| 2026-05-06 18:27 | 51.26772 | 2.97986 | 23965 ft | 475 kts | 285° |
| 2026-05-06 18:27 | 51.27705 | 2.92932 | 23967 ft | 475 kts | 285° |
| 2026-05-06 18:28 | 51.28636 | 2.87870 | 23968 ft | 475 kts | 285° |
| 2026-05-06 18:28 | 51.29565 | 2.82808 | 23965 ft | 475 kts | 285° |
| 2026-05-06 18:28 | 51.30492 | 2.77744 | 23963 ft | 475 kts | 285° |
| 2026-05-06 18:28 | 51.31416 | 2.72680 | 23965 ft | 475 kts | 285° |
| 2026-05-06 18:29 | 51.32338 | 2.67612 | 23962 ft | 474 kts | 285° |
| 2026-05-06 18:29 | 51.33257 | 2.62549 | 23961 ft | 474 kts | 285° |
| 2026-05-06 18:29 | 51.34174 | 2.57481 | 23960 ft | 474 kts | 285° |
| 2026-05-06 18:29 | 51.35089 | 2.52412 | 23961 ft | 475 kts | 285° |
| 2026-05-06 18:30 | 51.36003 | 2.47335 | 23957 ft | 475 kts | 285° |
| 2026-05-06 18:30 | 51.36914 | 2.42257 | 23957 ft | 475 kts | 285° |
| 2026-05-06 18:30 | 51.37822 | 2.37183 | 23954 ft | 475 kts | 285° |
| 2026-05-06 18:30 | 51.38730 | 2.32099 | 23961 ft | 475 kts | 285° |
| 2026-05-06 18:31 | 51.39634 | 2.27016 | 23960 ft | 475 kts | 285° |
| 2026-05-06 18:31 | 51.40537 | 2.21929 | 23959 ft | 475 kts | 285° |
| 2026-05-06 18:31 | 51.41436 | 2.16844 | 23963 ft | 475 kts | 285° |
| 2026-05-06 18:31 | 51.42333 | 2.11756 | 23963 ft | 475 kts | 285° |
| 2026-05-06 18:32 | 51.43230 | 2.06661 | 23962 ft | 475 kts | 285° |
| 2026-05-06 18:32 | 51.44117 | 2.01562 | 23971 ft | 475 kts | 284° |
| 2026-05-06 18:32 | 51.44807 | 1.96464 | 23968 ft | 474 kts | 279° |
| 2026-05-06 18:32 | 51.45394 | 1.91253 | 23970 ft | 475 kts | 280° |
| 2026-05-06 18:33 | 51.46003 | 1.86053 | 23969 ft | 475 kts | 280° |
| 2026-05-06 18:33 | 51.46618 | 1.80850 | 23970 ft | 475 kts | 280° |
| 2026-05-06 18:33 | 51.47230 | 1.75648 | 23972 ft | 475 kts | 280° |
| 2026-05-06 18:33 | 51.47836 | 1.70432 | 23972 ft | 475 kts | 279° |
| 2026-05-06 18:34 | 51.48174 | 1.65180 | 23976 ft | 475 kts | 271° |
| 2026-05-06 18:34 | 51.48007 | 1.59901 | 23971 ft | 474 kts | 263° |
| 2026-05-06 18:34 | 51.47364 | 1.54740 | 23724 ft | 470 kts | 255° |
| 2026-05-06 18:34 | 51.46304 | 1.49806 | 22976 ft | 466 kts | 250° |
| 2026-05-06 18:35 | 51.45174 | 1.44964 | 22092 ft | 460 kts | 249° |
| 2026-05-06 18:35 | 51.43787 | 1.40379 | 21131 ft | 455 kts | 239° |
| 2026-05-06 18:35 | 51.41911 | 1.36325 | 20178 ft | 451 kts | 229° |
| 2026-05-06 18:35 | 51.39628 | 1.32935 | 19237 ft | 447 kts | 219° |
| 2026-05-06 18:36 | 51.37131 | 1.29996 | 18319 ft | 443 kts | 217° |
| 2026-05-06 18:36 | 51.34661 | 1.27093 | 17310 ft | 438 kts | 218° |
| 2026-05-06 18:36 | 51.32225 | 1.24223 | 16338 ft | 432 kts | 218° |
| 2026-05-06 18:36 | 51.29825 | 1.21380 | 15397 ft | 427 kts | 219° |
| 2026-05-06 18:37 | 51.28373 | 1.19286 | 14774 ft | 423 kts | 228° |
| 2026-05-06 18:37 | 51.26635 | 1.15547 | 13877 ft | 417 kts | 241° |
| 2026-05-06 18:37 | 51.25223 | 1.11538 | 13247 ft | 413 kts | 242° |
| 2026-05-06 18:37 | 51.23833 | 1.07591 | 13020 ft | 399 kts | 242° |
| 2026-05-06 18:38 | 51.22512 | 1.03850 | 12979 ft | 375 kts | 242° |
| 2026-05-06 18:38 | 51.21268 | 1.00340 | 12981 ft | 353 kts | 242° |
| 2026-05-06 18:38 | 51.20093 | 0.97033 | 12982 ft | 333 kts | 242° |
| 2026-05-06 18:38 | 51.18983 | 0.93911 | 12974 ft | 312 kts | 242° |
| 2026-05-06 18:39 | 51.17949 | 0.91010 | 12992 ft | 295 kts | 242° |
| 2026-05-06 18:39 | 51.16926 | 0.88134 | 12985 ft | 300 kts | 242° |
| 2026-05-06 18:39 | 51.15902 | 0.85258 | 12987 ft | 297 kts | 242° |
| 2026-05-06 18:40 | 51.13857 | 0.79534 | 12988 ft | 298 kts | 242° |
| 2026-05-06 18:40 | 51.12832 | 0.76673 | 12987 ft | 297 kts | 242° |
| 2026-05-06 18:40 | 51.11807 | 0.73813 | 12990 ft | 297 kts | 242° |
| 2026-05-06 18:40 | 51.10782 | 0.70958 | 12967 ft | 297 kts | 242° |
| 2026-05-06 18:41 | 51.09761 | 0.68118 | 12719 ft | 294 kts | 242° |
| 2026-05-06 18:41 | 51.08747 | 0.65300 | 12161 ft | 293 kts | 242° |
| 2026-05-06 18:41 | 51.07739 | 0.62501 | 11558 ft | 292 kts | 242° |
| 2026-05-06 18:41 | 51.06733 | 0.59713 | 10998 ft | 289 kts | 242° |
| 2026-05-06 18:42 | 51.05734 | 0.56946 | 10420 ft | 288 kts | 242° |
| 2026-05-06 18:42 | 51.04740 | 0.54197 | 9846 ft | 286 kts | 242° |
| 2026-05-06 18:42 | 51.03752 | 0.51463 | 9236 ft | 284 kts | 242° |
| 2026-05-06 18:42 | 51.02772 | 0.48755 | 8627 ft | 281 kts | 242° |
| 2026-05-06 18:43 | 51.01801 | 0.46077 | 8148 ft | 277 kts | 242° |
| 2026-05-06 18:43 | 51.00830 | 0.43399 | 7985 ft | 281 kts | 241° |
| 2026-05-06 18:43 | 50.99873 | 0.40764 | 7969 ft | 278 kts | 241° |
| 2026-05-06 18:43 | 50.98907 | 0.38105 | 7972 ft | 279 kts | 241° |
| 2026-05-06 18:44 | 50.97935 | 0.35437 | 7970 ft | 279 kts | 241° |
| 2026-05-06 18:44 | 50.97036 | 0.32729 | 7970 ft | 272 kts | 253° |
| 2026-05-06 18:44 | 50.96798 | 0.29836 | 7975 ft | 254 kts | 271° |
| 2026-05-06 18:44 | 50.96785 | 0.27156 | 7970 ft | 240 kts | 271° |
| 2026-05-06 18:45 | 50.96771 | 0.24464 | 7975 ft | 243 kts | 271° |
| 2026-05-06 18:45 | 50.96759 | 0.21784 | 7971 ft | 242 kts | 271° |
| 2026-05-06 18:45 | 50.96748 | 0.19115 | 7978 ft | 242 kts | 271° |
| 2026-05-06 18:45 | 50.96738 | 0.16443 | 7978 ft | 242 kts | 271° |
| 2026-05-06 18:46 | 50.96727 | 0.13813 | 7986 ft | 242 kts | 271° |
| 2026-05-06 18:46 | 50.96717 | 0.11110 | 7987 ft | 242 kts | 271° |
| 2026-05-06 18:46 | 50.96706 | 0.08442 | 7988 ft | 242 kts | 271° |
| 2026-05-06 18:46 | 50.96695 | 0.05814 | 7987 ft | 242 kts | 271° |
| 2026-05-06 18:47 | 50.96683 | 0.03149 | 7988 ft | 241 kts | 271° |
| 2026-05-06 18:47 | 50.96671 | 0.00488 | 7987 ft | 241 kts | 271° |
| 2026-05-06 18:47 | 50.96658 | -0.02173 | 7989 ft | 241 kts | 271° |
| 2026-05-06 18:47 | 50.96647 | -0.04837 | 7989 ft | 242 kts | 271° |
| 2026-05-06 18:48 | 50.96636 | -0.07503 | 7990 ft | 242 kts | 271° |
| 2026-05-06 18:48 | 50.96622 | -0.10164 | 7990 ft | 241 kts | 271° |
| 2026-05-06 18:48 | 50.96607 | -0.12828 | 7990 ft | 241 kts | 271° |
| 2026-05-06 18:48 | 50.96591 | -0.15492 | 7990 ft | 241 kts | 271° |
| 2026-05-06 18:49 | 50.96574 | -0.18156 | 7992 ft | 242 kts | 271° |
| 2026-05-06 18:49 | 50.96555 | -0.20855 | 7990 ft | 242 kts | 271° |
| 2026-05-06 18:49 | 50.96538 | -0.23488 | 7993 ft | 242 kts | 271° |
| 2026-05-06 18:49 | 50.96586 | -0.26148 | 7975 ft | 240 kts | 279° |
| 2026-05-06 18:50 | 50.96942 | -0.28709 | 7785 ft | 237 kts | 285° |
| 2026-05-06 18:50 | 50.97357 | -0.31236 | 7473 ft | 237 kts | 286° |
| 2026-05-06 18:50 | 50.97773 | -0.33767 | 7160 ft | 236 kts | 286° |
| 2026-05-06 18:50 | 50.98187 | -0.36283 | 6860 ft | 235 kts | 286° |
| 2026-05-06 18:51 | 50.98598 | -0.38785 | 6563 ft | 234 kts | 286° |
| 2026-05-06 18:51 | 50.99005 | -0.41271 | 6268 ft | 232 kts | 286° |
| 2026-05-06 18:51 | 50.99410 | -0.43746 | 5962 ft | 231 kts | 286° |
| 2026-05-06 18:51 | 50.99810 | -0.46207 | 5610 ft | 230 kts | 286° |
| 2026-05-06 18:52 | 51.00206 | -0.48664 | 5206 ft | 230 kts | 286° |
| 2026-05-06 18:52 | 51.00791 | -0.50970 | 4922 ft | 221 kts | 309° |
| 2026-05-06 18:52 | 51.01976 | -0.52336 | 4794 ft | 207 kts | 343° |
| 2026-05-06 18:52 | 51.03343 | -0.52761 | 4725 ft | 195 kts | 351° |
| 2026-05-06 18:53 | 51.04650 | -0.53080 | 4621 ft | 186 kts | 351° |
| 2026-05-06 18:53 | 51.05910 | -0.53388 | 4414 ft | 182 kts | 351° |
| 2026-05-06 18:53 | 51.07174 | -0.53548 | 4132 ft | 182 kts | 4° |
| 2026-05-06 18:53 | 51.08428 | -0.53344 | 3902 ft | 181 kts | 6° |
| 2026-05-06 18:54 | 51.09656 | -0.53119 | 3675 ft | 175 kts | 6° |
| 2026-05-06 18:54 | 51.10772 | -0.52382 | 3218 ft | 182 kts | 46° |
| 2026-05-06 18:54 | 51.11158 | -0.50532 | 3022 ft | 180 kts | 88° |
| 2026-05-06 18:54 | 51.11095 | -0.48474 | 2988 ft | 186 kts | 90° |
| 2026-05-06 18:55 | 51.11132 | -0.46432 | 2996 ft | 186 kts | 81° |
| 2026-05-06 18:55 | 51.11329 | -0.44424 | 2989 ft | 178 kts | 76° |
| 2026-05-06 18:55 | 51.11581 | -0.42615 | 2994 ft | 163 kts | 74° |
| 2026-05-06 18:55 | 51.11827 | -0.40832 | 2822 ft | 165 kts | 75° |
| 2026-05-06 18:56 | 51.12068 | -0.39074 | 2598 ft | 163 kts | 74° |
| 2026-05-06 18:56 | 51.12307 | -0.37326 | 2390 ft | 161 kts | 75° |
| 2026-05-06 18:56 | 51.12547 | -0.35579 | 2158 ft | 161 kts | 75° |
| 2026-05-06 18:56 | 51.12783 | -0.33864 | 1931 ft | 160 kts | 74° |
| 2026-05-06 18:57 | 51.13017 | -0.32155 | 1742 ft | 160 kts | 74° |
| 2026-05-06 18:57 | 51.13255 | -0.30425 | 1502 ft | 158 kts | 75° |
| 2026-05-06 18:57 | 51.13488 | -0.28716 | 1291 ft | 157 kts | 75° |
| 2026-05-06 18:57 | 51.13712 | -0.27073 | 1053 ft | 143 kts | 75° |
| 2026-05-06 18:58 | 51.13911 | -0.25603 | 837 ft | 129 kts | 73° |
| 2026-05-06 18:58 | 51.14078 | -0.24255 | 641 ft | 123 kts | 75° |
| 2026-05-06 18:58 | 51.14269 | -0.22903 | 511 ft | 127 kts | 74° |
| 2026-05-06 18:58 | 51.14453 | -0.21527 | 335 ft | 125 kts | 77° |
| 2026-05-06 18:59 | 51.14648 | -0.20189 | 215 ft | 123 kts | 76° |
| 2026-05-06 18:59 | 51.14805 | -0.19073 | 212 ft | 76 kts | 77° |
| 2026-05-06 18:59 | 51.14907 | -0.18574 | 202 ft | 32 kts | 51° |